sensor_id;sensor_type;location;lat;lon;timestamp;P1;durP1;ratioP1;P2;durP2;ratioP2
72771;SDS011;60894;42.544;1.516;2023-03-01T00:01:33;7.63;;;2.65;;
72771;SDS011;60894;42.544;1.516;2023-03-01T00:04:00;8.30;;;2.80;;
72771;SDS011;60894;42.544;1.516;2023-03-01T00:06:27;7.93;;;3.25;;
72771;SDS011;60894;42.544;1.516;2023-03-01T00:08:54;7.47;;;2.70;;
72771;SDS011;60894;42.544;1.516;2023-03-01T00:11:22;8.80;;;3.10;;
72771;SDS011;60894;42.544;1.516;2023-03-01T00:13:51;9.15;;;3.10;;
72771;SDS011;60894;42.544;1.516;2023-03-01T00:16:22;7.47;;;3.03;;
72771;SDS011;60894;42.544;1.516;2023-03-01T00:18:51;8.77;;;3.38;;
72771;SDS011;60894;42.544;1.516;2023-03-01T00:21:20;8.25;;;2.90;;
72771;SDS011;60894;42.544;1.516;2023-03-01T00:23:47;7.07;;;2.77;;
72771;SDS011;60894;42.544;1.516;2023-03-01T00:26:14;7.40;;;3.05;;
72771;SDS011;60894;42.544;1.516;2023-03-01T00:28:43;7.95;;;2.83;;
72771;SDS011;60894;42.544;1.516;2023-03-01T00:31:11;7.22;;;2.97;;
72771;SDS011;60894;42.544;1.516;2023-03-01T00:33:40;8.50;;;3.08;;
72771;SDS011;60894;42.544;1.516;2023-03-01T00:36:07;7.63;;;3.00;;
72771;SDS011;60894;42.544;1.516;2023-03-01T00:38:35;13.35;;;8.50;;
72771;SDS011;60894;42.544;1.516;2023-03-01T00:41:03;9.52;;;5.18;;
72771;SDS011;60894;42.544;1.516;2023-03-01T00:43:31;7.47;;;3.30;;
72771;SDS011;60894;42.544;1.516;2023-03-01T00:46:01;8.43;;;3.22;;
72771;SDS011;60894;42.544;1.516;2023-03-01T00:48:29;10.17;;;3.10;;
72771;SDS011;60894;42.544;1.516;2023-03-01T00:50:57;9.80;;;3.42;;
72771;SDS011;60894;42.544;1.516;2023-03-01T00:53:30;8.77;;;2.97;;
72771;SDS011;60894;42.544;1.516;2023-03-01T00:55:57;8.18;;;2.78;;
72771;SDS011;60894;42.544;1.516;2023-03-01T00:58:25;7.72;;;2.95;;
72771;SDS011;60894;42.544;1.516;2023-03-01T01:00:52;8.57;;;3.17;;
72771;SDS011;60894;42.544;1.516;2023-03-01T01:03:19;8.77;;;2.80;;
72771;SDS011;60894;42.544;1.516;2023-03-01T01:05:46;9.50;;;3.28;;
72771;SDS011;60894;42.544;1.516;2023-03-01T01:08:14;7.15;;;2.78;;
72771;SDS011;60894;42.544;1.516;2023-03-01T01:10:43;6.65;;;2.53;;
72771;SDS011;60894;42.544;1.516;2023-03-01T01:13:10;8.10;;;2.87;;
72771;SDS011;60894;42.544;1.516;2023-03-01T01:15:37;7.03;;;2.63;;
72771;SDS011;60894;42.544;1.516;2023-03-01T01:18:04;6.38;;;2.40;;
72771;SDS011;60894;42.544;1.516;2023-03-01T01:20:31;7.18;;;2.60;;
72771;SDS011;60894;42.544;1.516;2023-03-01T01:22:58;6.97;;;2.60;;
72771;SDS011;60894;42.544;1.516;2023-03-01T01:25:27;7.47;;;2.53;;
72771;SDS011;60894;42.544;1.516;2023-03-01T01:27:53;7.25;;;2.70;;
72771;SDS011;60894;42.544;1.516;2023-03-01T01:30:20;7.75;;;2.85;;
72771;SDS011;60894;42.544;1.516;2023-03-01T01:32:47;9.32;;;2.97;;
72771;SDS011;60894;42.544;1.516;2023-03-01T01:35:14;8.48;;;2.85;;
72771;SDS011;60894;42.544;1.516;2023-03-01T01:37:44;8.00;;;2.60;;
72771;SDS011;60894;42.544;1.516;2023-03-01T01:40:12;7.18;;;2.85;;
72771;SDS011;60894;42.544;1.516;2023-03-01T01:42:40;9.48;;;2.90;;
72771;SDS011;60894;42.544;1.516;2023-03-01T01:45:27;8.80;;;2.97;;
72771;SDS011;60894;42.544;1.516;2023-03-01T01:47:58;9.43;;;2.90;;
72771;SDS011;60894;42.544;1.516;2023-03-01T01:50:27;6.80;;;2.53;;
72771;SDS011;60894;42.544;1.516;2023-03-01T01:53:02;8.27;;;2.97;;
72771;SDS011;60894;42.544;1.516;2023-03-01T01:55:39;9.77;;;3.53;;
72771;SDS011;60894;42.544;1.516;2023-03-01T01:58:12;7.35;;;2.60;;
72771;SDS011;60894;42.544;1.516;2023-03-01T02:00:42;7.70;;;2.80;;
72771;SDS011;60894;42.544;1.516;2023-03-01T02:03:10;8.10;;;2.80;;
72771;SDS011;60894;42.544;1.516;2023-03-01T02:05:40;10.60;;;2.70;;
72771;SDS011;60894;42.544;1.516;2023-03-01T02:08:12;9.18;;;3.30;;
72771;SDS011;60894;42.544;1.516;2023-03-01T02:10:40;7.70;;;2.80;;
72771;SDS011;60894;42.544;1.516;2023-03-01T02:13:11;7.45;;;2.55;;
72771;SDS011;60894;42.544;1.516;2023-03-01T02:15:39;10.07;;;2.97;;
72771;SDS011;60894;42.544;1.516;2023-03-01T02:18:09;5.72;;;2.28;;
72771;SDS011;60894;42.544;1.516;2023-03-01T02:20:39;8.32;;;2.90;;
72771;SDS011;60894;42.544;1.516;2023-03-01T02:23:14;8.75;;;3.00;;
72771;SDS011;60894;42.544;1.516;2023-03-01T02:25:44;8.10;;;2.65;;
72771;SDS011;60894;42.544;1.516;2023-03-01T02:28:22;7.97;;;2.90;;
72771;SDS011;60894;42.544;1.516;2023-03-01T02:30:52;9.25;;;3.20;;
72771;SDS011;60894;42.544;1.516;2023-03-01T02:33:38;9.88;;;3.58;;
72771;SDS011;60894;42.544;1.516;2023-03-01T02:36:07;9.82;;;3.20;;
72771;SDS011;60894;42.544;1.516;2023-03-01T02:38:38;11.32;;;3.28;;
72771;SDS011;60894;42.544;1.516;2023-03-01T02:41:05;7.83;;;2.73;;
72771;SDS011;60894;42.544;1.516;2023-03-01T02:43:35;6.72;;;2.30;;
72771;SDS011;60894;42.544;1.516;2023-03-01T02:46:03;6.93;;;2.65;;
72771;SDS011;60894;42.544;1.516;2023-03-01T02:48:42;7.13;;;2.92;;
72771;SDS011;60894;42.544;1.516;2023-03-01T02:51:12;7.82;;;3.00;;
72771;SDS011;60894;42.544;1.516;2023-03-01T02:53:51;8.10;;;2.60;;
72771;SDS011;60894;42.544;1.516;2023-03-01T02:56:26;8.75;;;2.92;;
72771;SDS011;60894;42.544;1.516;2023-03-01T02:58:55;7.63;;;2.72;;
72771;SDS011;60894;42.544;1.516;2023-03-01T03:01:25;7.20;;;2.53;;
72771;SDS011;60894;42.544;1.516;2023-03-01T03:04:01;7.68;;;2.75;;
72771;SDS011;60894;42.544;1.516;2023-03-01T03:06:29;7.60;;;2.77;;
72771;SDS011;60894;42.544;1.516;2023-03-01T03:08:56;7.75;;;2.50;;
72771;SDS011;60894;42.544;1.516;2023-03-01T03:11:23;7.55;;;2.97;;
72771;SDS011;60894;42.544;1.516;2023-03-01T03:13:50;7.68;;;2.88;;
72771;SDS011;60894;42.544;1.516;2023-03-01T03:16:18;8.40;;;2.95;;
72771;SDS011;60894;42.544;1.516;2023-03-01T03:18:45;7.57;;;2.67;;
72771;SDS011;60894;42.544;1.516;2023-03-01T03:21:13;7.22;;;2.50;;
72771;SDS011;60894;42.544;1.516;2023-03-01T03:23:41;7.90;;;2.75;;
72771;SDS011;60894;42.544;1.516;2023-03-01T03:26:08;7.72;;;2.70;;
72771;SDS011;60894;42.544;1.516;2023-03-01T03:28:40;10.68;;;3.15;;
72771;SDS011;60894;42.544;1.516;2023-03-01T03:31:07;6.97;;;2.67;;
72771;SDS011;60894;42.544;1.516;2023-03-01T03:33:35;7.82;;;2.60;;
72771;SDS011;60894;42.544;1.516;2023-03-01T03:36:02;6.65;;;2.63;;
72771;SDS011;60894;42.544;1.516;2023-03-01T03:38:30;8.15;;;3.00;;
72771;SDS011;60894;42.544;1.516;2023-03-01T03:41:00;6.82;;;2.60;;
72771;SDS011;60894;42.544;1.516;2023-03-01T03:43:29;6.90;;;2.60;;
72771;SDS011;60894;42.544;1.516;2023-03-01T03:45:58;7.53;;;2.90;;
72771;SDS011;60894;42.544;1.516;2023-03-01T03:48:25;7.10;;;2.60;;
72771;SDS011;60894;42.544;1.516;2023-03-01T03:50:55;6.10;;;2.45;;
72771;SDS011;60894;42.544;1.516;2023-03-01T03:53:23;6.47;;;2.60;;
72771;SDS011;60894;42.544;1.516;2023-03-01T03:55:52;7.77;;;2.80;;
72771;SDS011;60894;42.544;1.516;2023-03-01T03:58:20;7.13;;;2.60;;
72771;SDS011;60894;42.544;1.516;2023-03-01T04:00:49;9.05;;;3.20;;
72771;SDS011;60894;42.544;1.516;2023-03-01T04:03:17;7.63;;;2.67;;
72771;SDS011;60894;42.544;1.516;2023-03-01T04:05:45;8.50;;;3.00;;
72771;SDS011;60894;42.544;1.516;2023-03-01T04:08:16;8.77;;;2.73;;
72771;SDS011;60894;42.544;1.516;2023-03-01T04:10:45;7.72;;;2.60;;
72771;SDS011;60894;42.544;1.516;2023-03-01T04:13:14;8.52;;;3.00;;
72771;SDS011;60894;42.544;1.516;2023-03-01T04:15:44;8.98;;;2.83;;
72771;SDS011;60894;42.544;1.516;2023-03-01T04:18:50;7.03;;;2.80;;
72771;SDS011;60894;42.544;1.516;2023-03-01T04:21:15;7.63;;;2.80;;
72771;SDS011;60894;42.544;1.516;2023-03-01T04:23:43;6.85;;;2.63;;
72771;SDS011;60894;42.544;1.516;2023-03-01T04:26:10;7.53;;;2.88;;
72771;SDS011;60894;42.544;1.516;2023-03-01T04:28:38;8.77;;;3.05;;
72771;SDS011;60894;42.544;1.516;2023-03-01T04:31:08;8.32;;;3.03;;
72771;SDS011;60894;42.544;1.516;2023-03-01T04:33:39;7.27;;;2.77;;
72771;SDS011;60894;42.544;1.516;2023-03-01T04:36:08;9.25;;;2.95;;
72771;SDS011;60894;42.544;1.516;2023-03-01T04:38:35;7.68;;;3.00;;
72771;SDS011;60894;42.544;1.516;2023-03-01T04:41:05;8.70;;;2.95;;
72771;SDS011;60894;42.544;1.516;2023-03-01T04:43:32;8.88;;;2.78;;
72771;SDS011;60894;42.544;1.516;2023-03-01T04:46:00;10.40;;;3.20;;
72771;SDS011;60894;42.544;1.516;2023-03-01T04:48:29;8.75;;;2.90;;
72771;SDS011;60894;42.544;1.516;2023-03-01T04:50:57;7.50;;;2.65;;
72771;SDS011;60894;42.544;1.516;2023-03-01T04:53:24;8.48;;;2.97;;
72771;SDS011;60894;42.544;1.516;2023-03-01T04:55:51;8.25;;;2.90;;
72771;SDS011;60894;42.544;1.516;2023-03-01T04:58:21;7.60;;;2.70;;
72771;SDS011;60894;42.544;1.516;2023-03-01T05:00:48;9.07;;;3.13;;
72771;SDS011;60894;42.544;1.516;2023-03-01T05:03:15;8.05;;;2.75;;
72771;SDS011;60894;42.544;1.516;2023-03-01T05:05:44;7.03;;;2.40;;
72771;SDS011;60894;42.544;1.516;2023-03-01T05:08:12;8.63;;;2.90;;
72771;SDS011;60894;42.544;1.516;2023-03-01T05:10:43;8.03;;;2.73;;
72771;SDS011;60894;42.544;1.516;2023-03-01T05:13:11;8.75;;;3.22;;
72771;SDS011;60894;42.544;1.516;2023-03-01T05:15:39;7.72;;;2.72;;
72771;SDS011;60894;42.544;1.516;2023-03-01T05:18:06;7.32;;;2.67;;
72771;SDS011;60894;42.544;1.516;2023-03-01T05:20:36;9.00;;;3.25;;
72771;SDS011;60894;42.544;1.516;2023-03-01T05:23:04;9.20;;;2.87;;
72771;SDS011;60894;42.544;1.516;2023-03-01T05:25:31;8.63;;;2.90;;
72771;SDS011;60894;42.544;1.516;2023-03-01T05:27:59;7.65;;;2.60;;
72771;SDS011;60894;42.544;1.516;2023-03-01T05:30:29;8.10;;;2.70;;
72771;SDS011;60894;42.544;1.516;2023-03-01T05:32:58;7.93;;;2.75;;
72771;SDS011;60894;42.544;1.516;2023-03-01T05:35:25;7.80;;;2.80;;
72771;SDS011;60894;42.544;1.516;2023-03-01T05:37:52;7.15;;;2.40;;
72771;SDS011;60894;42.544;1.516;2023-03-01T05:40:20;8.25;;;2.80;;
72771;SDS011;60894;42.544;1.516;2023-03-01T05:42:49;8.48;;;2.95;;
72771;SDS011;60894;42.544;1.516;2023-03-01T05:45:18;8.80;;;2.85;;
72771;SDS011;60894;42.544;1.516;2023-03-01T05:47:45;7.80;;;2.70;;
72771;SDS011;60894;42.544;1.516;2023-03-01T05:50:16;9.27;;;3.20;;
72771;SDS011;60894;42.544;1.516;2023-03-01T05:52:45;8.57;;;3.15;;
72771;SDS011;60894;42.544;1.516;2023-03-01T05:55:13;9.45;;;3.25;;
72771;SDS011;60894;42.544;1.516;2023-03-01T05:57:41;8.07;;;3.20;;
72771;SDS011;60894;42.544;1.516;2023-03-01T06:00:08;8.97;;;3.03;;
72771;SDS011;60894;42.544;1.516;2023-03-01T06:02:36;7.00;;;2.63;;
72771;SDS011;60894;42.544;1.516;2023-03-01T06:05:04;12.50;;;3.72;;
72771;SDS011;60894;42.544;1.516;2023-03-01T06:07:33;11.10;;;3.00;;
72771;SDS011;60894;42.544;1.516;2023-03-01T06:10:00;9.50;;;2.88;;
72771;SDS011;60894;42.544;1.516;2023-03-01T06:12:29;10.37;;;3.40;;
72771;SDS011;60894;42.544;1.516;2023-03-01T06:14:58;10.75;;;3.10;;
72771;SDS011;60894;42.544;1.516;2023-03-01T06:17:24;10.13;;;3.63;;
72771;SDS011;60894;42.544;1.516;2023-03-01T06:19:51;9.35;;;3.13;;
72771;SDS011;60894;42.544;1.516;2023-03-01T06:22:18;9.82;;;3.03;;
72771;SDS011;60894;42.544;1.516;2023-03-01T06:24:47;8.53;;;3.33;;
72771;SDS011;60894;42.544;1.516;2023-03-01T06:27:13;10.48;;;3.20;;
72771;SDS011;60894;42.544;1.516;2023-03-01T06:29:40;8.02;;;2.67;;
72771;SDS011;60894;42.544;1.516;2023-03-01T06:32:07;7.47;;;2.70;;
72771;SDS011;60894;42.544;1.516;2023-03-01T06:34:34;10.35;;;2.92;;
72771;SDS011;60894;42.544;1.516;2023-03-01T06:37:01;10.60;;;3.17;;
72771;SDS011;60894;42.544;1.516;2023-03-01T06:39:30;11.05;;;3.60;;
72771;SDS011;60894;42.544;1.516;2023-03-01T06:41:58;9.98;;;3.88;;
72771;SDS011;60894;42.544;1.516;2023-03-01T06:44:25;9.73;;;3.50;;
72771;SDS011;60894;42.544;1.516;2023-03-01T06:46:52;10.27;;;4.03;;
72771;SDS011;60894;42.544;1.516;2023-03-01T06:49:20;11.03;;;5.40;;
72771;SDS011;60894;42.544;1.516;2023-03-01T06:51:47;17.15;;;7.75;;
72771;SDS011;60894;42.544;1.516;2023-03-01T06:54:14;10.13;;;4.68;;
72771;SDS011;60894;42.544;1.516;2023-03-01T06:56:42;9.55;;;4.20;;
72771;SDS011;60894;42.544;1.516;2023-03-01T06:59:11;15.65;;;6.55;;
72771;SDS011;60894;42.544;1.516;2023-03-01T07:01:37;11.30;;;5.03;;
72771;SDS011;60894;42.544;1.516;2023-03-01T07:04:05;13.82;;;5.40;;
72771;SDS011;60894;42.544;1.516;2023-03-01T07:06:31;13.40;;;5.57;;
72771;SDS011;60894;42.544;1.516;2023-03-01T07:08:58;16.02;;;4.82;;
72771;SDS011;60894;42.544;1.516;2023-03-01T07:11:25;11.57;;;4.53;;
72771;SDS011;60894;42.544;1.516;2023-03-01T07:13:52;13.20;;;5.20;;
72771;SDS011;60894;42.544;1.516;2023-03-01T07:16:21;18.65;;;8.13;;
72771;SDS011;60894;42.544;1.516;2023-03-01T07:18:48;12.23;;;5.40;;
72771;SDS011;60894;42.544;1.516;2023-03-01T07:21:15;13.88;;;5.38;;
72771;SDS011;60894;42.544;1.516;2023-03-01T07:23:42;11.43;;;4.82;;
72771;SDS011;60894;42.544;1.516;2023-03-01T07:26:09;13.00;;;5.37;;
72771;SDS011;60894;42.544;1.516;2023-03-01T07:28:36;24.35;;;14.50;;
72771;SDS011;60894;42.544;1.516;2023-03-01T07:31:04;13.38;;;6.28;;
72771;SDS011;60894;42.544;1.516;2023-03-01T07:33:33;10.90;;;5.07;;
72771;SDS011;60894;42.544;1.516;2023-03-01T07:36:01;12.25;;;4.93;;
72771;SDS011;60894;42.544;1.516;2023-03-01T07:38:29;11.87;;;5.20;;
72771;SDS011;60894;42.544;1.516;2023-03-01T07:40:57;12.00;;;5.22;;
72771;SDS011;60894;42.544;1.516;2023-03-01T07:43:25;15.02;;;5.70;;
72771;SDS011;60894;42.544;1.516;2023-03-01T07:45:52;13.35;;;5.50;;
72771;SDS011;60894;42.544;1.516;2023-03-01T07:48:19;16.73;;;6.93;;
72771;SDS011;60894;42.544;1.516;2023-03-01T07:50:48;23.90;;;8.80;;
72771;SDS011;60894;42.544;1.516;2023-03-01T07:53:14;25.25;;;10.95;;
72771;SDS011;60894;42.544;1.516;2023-03-01T07:55:41;36.13;;;16.40;;
72771;SDS011;60894;42.544;1.516;2023-03-01T07:58:08;26.88;;;12.85;;
72771;SDS011;60894;42.544;1.516;2023-03-01T08:00:35;24.33;;;11.68;;
72771;SDS011;60894;42.544;1.516;2023-03-01T08:03:02;18.03;;;8.47;;
72771;SDS011;60894;42.544;1.516;2023-03-01T08:05:29;18.50;;;7.97;;
72771;SDS011;60894;42.544;1.516;2023-03-01T08:07:57;16.83;;;8.02;;
72771;SDS011;60894;42.544;1.516;2023-03-01T08:10:24;20.80;;;10.48;;
72771;SDS011;60894;42.544;1.516;2023-03-01T08:12:52;17.80;;;8.55;;
72771;SDS011;60894;42.544;1.516;2023-03-01T08:15:19;13.87;;;6.80;;
72771;SDS011;60894;42.544;1.516;2023-03-01T08:17:48;12.63;;;4.78;;
72771;SDS011;60894;42.544;1.516;2023-03-01T08:20:16;13.95;;;4.57;;
72771;SDS011;60894;42.544;1.516;2023-03-01T08:22:43;13.02;;;4.85;;
72771;SDS011;60894;42.544;1.516;2023-03-01T08:25:11;11.32;;;5.05;;
72771;SDS011;60894;42.544;1.516;2023-03-01T08:27:38;14.37;;;5.20;;
72771;SDS011;60894;42.544;1.516;2023-03-01T08:30:05;17.27;;;6.35;;
72771;SDS011;60894;42.544;1.516;2023-03-01T08:32:35;15.30;;;6.72;;
72771;SDS011;60894;42.544;1.516;2023-03-01T08:35:03;13.95;;;5.68;;
72771;SDS011;60894;42.544;1.516;2023-03-01T08:37:31;16.98;;;5.70;;
72771;SDS011;60894;42.544;1.516;2023-03-01T08:39:58;10.77;;;4.63;;
72771;SDS011;60894;42.544;1.516;2023-03-01T08:42:26;12.75;;;4.82;;
72771;SDS011;60894;42.544;1.516;2023-03-01T08:44:53;9.55;;;4.80;;
72771;SDS011;60894;42.544;1.516;2023-03-01T08:47:21;12.80;;;5.68;;
72771;SDS011;60894;42.544;1.516;2023-03-01T08:49:49;12.73;;;5.10;;
72771;SDS011;60894;42.544;1.516;2023-03-01T08:52:16;11.90;;;5.03;;
72771;SDS011;60894;42.544;1.516;2023-03-01T08:54:43;10.85;;;4.75;;
72771;SDS011;60894;42.544;1.516;2023-03-01T08:57:10;9.98;;;4.50;;
72771;SDS011;60894;42.544;1.516;2023-03-01T08:59:39;12.23;;;5.53;;
72771;SDS011;60894;42.544;1.516;2023-03-01T09:02:10;8.05;;;3.35;;
72771;SDS011;60894;42.544;1.516;2023-03-01T09:04:38;7.63;;;3.23;;
72771;SDS011;60894;42.544;1.516;2023-03-01T09:07:05;10.10;;;3.22;;
72771;SDS011;60894;42.544;1.516;2023-03-01T09:09:33;8.55;;;2.80;;
72771;SDS011;60894;42.544;1.516;2023-03-01T09:12:00;7.03;;;2.85;;
72771;SDS011;60894;42.544;1.516;2023-03-01T09:14:27;7.68;;;2.28;;
72771;SDS011;60894;42.544;1.516;2023-03-01T09:16:55;8.77;;;2.40;;
72771;SDS011;60894;42.544;1.516;2023-03-01T09:19:22;7.32;;;2.45;;
72771;SDS011;60894;42.544;1.516;2023-03-01T09:21:49;4.78;;;1.98;;
72771;SDS011;60894;42.544;1.516;2023-03-01T09:24:18;5.75;;;1.83;;
72771;SDS011;60894;42.544;1.516;2023-03-01T09:26:47;7.43;;;1.83;;
72771;SDS011;60894;42.544;1.516;2023-03-01T09:29:14;5.67;;;2.20;;
72771;SDS011;60894;42.544;1.516;2023-03-01T09:31:41;8.20;;;2.10;;
72771;SDS011;60894;42.544;1.516;2023-03-01T09:34:11;5.90;;;1.98;;
72771;SDS011;60894;42.544;1.516;2023-03-01T09:36:40;4.72;;;1.70;;
72771;SDS011;60894;42.544;1.516;2023-03-01T09:39:07;7.30;;;2.38;;
72771;SDS011;60894;42.544;1.516;2023-03-01T09:41:38;9.37;;;2.17;;
72771;SDS011;60894;42.544;1.516;2023-03-01T09:44:13;8.20;;;2.40;;
72771;SDS011;60894;42.544;1.516;2023-03-01T09:46:47;13.45;;;2.92;;
72771;SDS011;60894;42.544;1.516;2023-03-01T09:49:17;9.95;;;2.17;;
72771;SDS011;60894;42.544;1.516;2023-03-01T09:51:48;9.57;;;2.60;;
72771;SDS011;60894;42.544;1.516;2023-03-01T09:54:25;8.40;;;2.70;;
72771;SDS011;60894;42.544;1.516;2023-03-01T09:56:56;12.82;;;3.78;;
72771;SDS011;60894;42.544;1.516;2023-03-01T09:59:32;11.13;;;3.58;;
72771;SDS011;60894;42.544;1.516;2023-03-01T10:02:11;8.32;;;3.17;;
72771;SDS011;60894;42.544;1.516;2023-03-01T10:04:59;6.88;;;2.53;;
72771;SDS011;60894;42.544;1.516;2023-03-01T10:07:38;7.07;;;2.70;;
72771;SDS011;60894;42.544;1.516;2023-03-01T10:10:16;7.65;;;3.33;;
72771;SDS011;60894;42.544;1.516;2023-03-01T10:12:52;9.10;;;2.70;;
72771;SDS011;60894;42.544;1.516;2023-03-01T10:15:22;11.25;;;3.40;;
72771;SDS011;60894;42.544;1.516;2023-03-01T10:17:57;13.00;;;4.28;;
72771;SDS011;60894;42.544;1.516;2023-03-01T10:20:33;9.73;;;3.60;;
72771;SDS011;60894;42.544;1.516;2023-03-01T10:23:09;9.63;;;3.50;;
72771;SDS011;60894;42.544;1.516;2023-03-01T10:25:41;10.60;;;3.50;;
72771;SDS011;60894;42.544;1.516;2023-03-01T10:28:16;7.25;;;2.95;;
72771;SDS011;60894;42.544;1.516;2023-03-01T10:30:46;7.80;;;2.90;;
72771;SDS011;60894;42.544;1.516;2023-03-01T10:33:14;9.97;;;3.87;;
72771;SDS011;60894;42.544;1.516;2023-03-01T10:35:47;7.38;;;2.90;;
72771;SDS011;60894;42.544;1.516;2023-03-01T10:38:15;12.68;;;4.70;;
72771;SDS011;60894;42.544;1.516;2023-03-01T10:40:52;10.32;;;2.85;;
72771;SDS011;60894;42.544;1.516;2023-03-01T10:43:22;11.63;;;3.30;;
72771;SDS011;60894;42.544;1.516;2023-03-01T10:45:50;8.33;;;2.90;;
72771;SDS011;60894;42.544;1.516;2023-03-01T10:48:18;9.70;;;3.35;;
72771;SDS011;60894;42.544;1.516;2023-03-01T10:50:50;9.10;;;2.85;;
72771;SDS011;60894;42.544;1.516;2023-03-01T10:53:32;10.57;;;3.08;;
72771;SDS011;60894;42.544;1.516;2023-03-01T10:56:01;8.98;;;2.60;;
72771;SDS011;60894;42.544;1.516;2023-03-01T10:58:31;39.23;;;5.27;;
72771;SDS011;60894;42.544;1.516;2023-03-01T11:01:00;11.23;;;3.10;;
72771;SDS011;60894;42.544;1.516;2023-03-01T11:03:28;9.30;;;2.80;;
72771;SDS011;60894;42.544;1.516;2023-03-01T11:05:59;12.82;;;3.45;;
72771;SDS011;60894;42.544;1.516;2023-03-01T11:08:32;9.50;;;2.90;;
72771;SDS011;60894;42.544;1.516;2023-03-01T11:11:04;6.37;;;2.30;;
72771;SDS011;60894;42.544;1.516;2023-03-01T11:13:33;8.65;;;2.50;;
72771;SDS011;60894;42.544;1.516;2023-03-01T11:16:01;13.05;;;3.10;;
72771;SDS011;60894;42.544;1.516;2023-03-01T11:18:30;7.57;;;2.95;;
72771;SDS011;60894;42.544;1.516;2023-03-01T11:20:59;8.80;;;2.53;;
72771;SDS011;60894;42.544;1.516;2023-03-01T11:23:27;9.00;;;3.00;;
72771;SDS011;60894;42.544;1.516;2023-03-01T11:25:56;6.88;;;2.65;;
72771;SDS011;60894;42.544;1.516;2023-03-01T11:28:25;7.57;;;3.30;;
72771;SDS011;60894;42.544;1.516;2023-03-01T11:30:55;8.95;;;3.45;;
72771;SDS011;60894;42.544;1.516;2023-03-01T11:33:30;6.32;;;2.60;;
72771;SDS011;60894;42.544;1.516;2023-03-01T11:36:06;9.90;;;3.30;;
72771;SDS011;60894;42.544;1.516;2023-03-01T11:38:39;7.85;;;3.30;;
72771;SDS011;60894;42.544;1.516;2023-03-01T11:41:06;8.85;;;3.47;;
72771;SDS011;60894;42.544;1.516;2023-03-01T11:43:41;6.05;;;2.75;;
72771;SDS011;60894;42.544;1.516;2023-03-01T11:52:19;6.32;;;2.60;;
72771;SDS011;60894;42.544;1.516;2023-03-01T11:54:55;9.25;;;2.90;;
72771;SDS011;60894;42.544;1.516;2023-03-01T11:57:36;5.88;;;2.70;;
72771;SDS011;60894;42.544;1.516;2023-03-01T12:00:14;8.70;;;2.88;;
72771;SDS011;60894;42.544;1.516;2023-03-01T12:02:55;6.43;;;2.50;;
72771;SDS011;60894;42.544;1.516;2023-03-01T12:08:45;6.28;;;2.40;;
72771;SDS011;60894;42.544;1.516;2023-03-01T12:11:23;4.18;;;2.13;;
72771;SDS011;60894;42.544;1.516;2023-03-01T12:14:11;7.60;;;2.60;;
72771;SDS011;60894;42.544;1.516;2023-03-01T12:20:00;6.78;;;2.67;;
72771;SDS011;60894;42.544;1.516;2023-03-01T12:22:41;7.90;;;2.05;;
72771;SDS011;60894;42.544;1.516;2023-03-01T12:25:24;10.07;;;3.67;;
72771;SDS011;60894;42.544;1.516;2023-03-01T12:28:06;3.75;;;1.40;;
72771;SDS011;60894;42.544;1.516;2023-03-01T12:31:01;4.77;;;2.03;;
72771;SDS011;60894;42.544;1.516;2023-03-01T12:33:52;1.88;;;0.90;;
72771;SDS011;60894;42.544;1.516;2023-03-01T12:36:35;2.95;;;1.20;;
72771;SDS011;60894;42.544;1.516;2023-03-01T12:39:24;1.98;;;0.90;;
72771;SDS011;60894;42.544;1.516;2023-03-01T12:45:17;3.60;;;0.90;;
72771;SDS011;60894;42.544;1.516;2023-03-01T12:48:03;3.53;;;1.30;;
72771;SDS011;60894;42.544;1.516;2023-03-01T12:50:45;3.05;;;1.17;;
72771;SDS011;60894;42.544;1.516;2023-03-01T12:53:23;2.13;;;0.80;;
72771;SDS011;60894;42.544;1.516;2023-03-01T12:55:51;1.90;;;1.02;;
72771;SDS011;60894;42.544;1.516;2023-03-01T12:58:23;14.77;;;6.97;;
72771;SDS011;60894;42.544;1.516;2023-03-01T13:01:01;3.67;;;1.08;;
72771;SDS011;60894;42.544;1.516;2023-03-01T13:03:42;1.48;;;0.75;;
72771;SDS011;60894;42.544;1.516;2023-03-01T13:06:19;2.15;;;1.00;;
72771;SDS011;60894;42.544;1.516;2023-03-01T13:08:56;1.73;;;0.90;;
72771;SDS011;60894;42.544;1.516;2023-03-01T13:11:31;1.57;;;0.80;;
72771;SDS011;60894;42.544;1.516;2023-03-01T13:17:01;4.07;;;1.05;;
72771;SDS011;60894;42.544;1.516;2023-03-01T13:19:28;1.45;;;0.80;;
72771;SDS011;60894;42.544;1.516;2023-03-01T13:21:57;2.58;;;0.70;;
72771;SDS011;60894;42.544;1.516;2023-03-01T13:24:26;3.43;;;1.20;;
72771;SDS011;60894;42.544;1.516;2023-03-01T13:29:51;3.28;;;1.08;;
72771;SDS011;60894;42.544;1.516;2023-03-01T13:32:21;3.20;;;0.70;;
72771;SDS011;60894;42.544;1.516;2023-03-01T13:34:50;3.85;;;1.40;;
72771;SDS011;60894;42.544;1.516;2023-03-01T13:37:25;2.87;;;1.00;;
72771;SDS011;60894;42.544;1.516;2023-03-01T13:39:55;3.70;;;1.50;;
72771;SDS011;60894;42.544;1.516;2023-03-01T13:42:37;8.65;;;2.75;;
72771;SDS011;60894;42.544;1.516;2023-03-01T13:45:21;4.03;;;1.00;;
72771;SDS011;60894;42.544;1.516;2023-03-01T13:47:58;3.55;;;1.08;;
72771;SDS011;60894;42.544;1.516;2023-03-01T13:50:29;2.40;;;1.10;;
72771;SDS011;60894;42.544;1.516;2023-03-01T13:53:02;3.75;;;1.17;;
72771;SDS011;60894;42.544;1.516;2023-03-01T13:55:35;1.67;;;0.90;;
72771;SDS011;60894;42.544;1.516;2023-03-01T13:58:15;2.85;;;1.00;;
72771;SDS011;60894;42.544;1.516;2023-03-01T14:00:46;2.67;;;1.00;;
72771;SDS011;60894;42.544;1.516;2023-03-01T14:03:15;2.63;;;1.00;;
72771;SDS011;60894;42.544;1.516;2023-03-01T14:05:44;2.72;;;0.80;;
72771;SDS011;60894;42.544;1.516;2023-03-01T14:08:25;2.20;;;1.20;;
72771;SDS011;60894;42.544;1.516;2023-03-01T14:13:56;4.78;;;1.40;;
72771;SDS011;60894;42.544;1.516;2023-03-01T14:16:38;2.70;;;0.97;;
72771;SDS011;60894;42.544;1.516;2023-03-01T14:19:17;1.58;;;0.88;;
72771;SDS011;60894;42.544;1.516;2023-03-01T14:21:54;4.22;;;1.38;;
72771;SDS011;60894;42.544;1.516;2023-03-01T14:24:27;3.38;;;1.10;;
72771;SDS011;60894;42.544;1.516;2023-03-01T14:26:57;2.28;;;0.90;;
72771;SDS011;60894;42.544;1.516;2023-03-01T14:29:33;2.23;;;0.87;;
72771;SDS011;60894;42.544;1.516;2023-03-01T14:32:11;3.42;;;1.00;;
72771;SDS011;60894;42.544;1.516;2023-03-01T14:34:46;2.63;;;0.93;;
72771;SDS011;60894;42.544;1.516;2023-03-01T14:37:18;1.95;;;0.90;;
72771;SDS011;60894;42.544;1.516;2023-03-01T14:39:47;2.95;;;1.20;;
72771;SDS011;60894;42.544;1.516;2023-03-01T14:42:14;3.67;;;1.30;;
72771;SDS011;60894;42.544;1.516;2023-03-01T14:44:42;1.83;;;1.10;;
72771;SDS011;60894;42.544;1.516;2023-03-01T14:47:11;3.45;;;1.35;;
72771;SDS011;60894;42.544;1.516;2023-03-01T14:49:40;4.47;;;1.10;;
72771;SDS011;60894;42.544;1.516;2023-03-01T14:52:17;7.28;;;1.73;;
72771;SDS011;60894;42.544;1.516;2023-03-01T14:54:47;3.90;;;1.50;;
72771;SDS011;60894;42.544;1.516;2023-03-01T14:57:17;3.22;;;1.10;;
72771;SDS011;60894;42.544;1.516;2023-03-01T14:59:46;7.47;;;2.70;;
72771;SDS011;60894;42.544;1.516;2023-03-01T15:02:16;4.85;;;1.77;;
72771;SDS011;60894;42.544;1.516;2023-03-01T15:04:45;6.57;;;2.55;;
72771;SDS011;60894;42.544;1.516;2023-03-01T15:07:14;9.63;;;2.40;;
72771;SDS011;60894;42.544;1.516;2023-03-01T15:09:43;3.47;;;1.00;;
72771;SDS011;60894;42.544;1.516;2023-03-01T15:15:19;6.05;;;1.20;;
72771;SDS011;60894;42.544;1.516;2023-03-01T15:17:50;4.53;;;1.33;;
72771;SDS011;60894;42.544;1.516;2023-03-01T15:20:20;4.50;;;1.23;;
72771;SDS011;60894;42.544;1.516;2023-03-01T15:22:51;3.95;;;1.50;;
72771;SDS011;60894;42.544;1.516;2023-03-01T15:25:20;4.65;;;1.20;;
72771;SDS011;60894;42.544;1.516;2023-03-01T15:27:49;4.03;;;1.40;;
72771;SDS011;60894;42.544;1.516;2023-03-01T15:30:19;3.17;;;1.20;;
72771;SDS011;60894;42.544;1.516;2023-03-01T15:32:48;3.47;;;1.30;;